createdAt,value
2022-08-07T00:00:36.508Z,11.30
2022-08-07T00:03:08.783Z,11.40
2022-08-07T00:05:36.210Z,11.30
2022-08-07T00:08:05.441Z,11.30
2022-08-07T00:10:35.263Z,11.20
2022-08-07T00:13:23.493Z,11.10
2022-08-07T00:15:52.470Z,11.10
2022-08-07T00:18:24.439Z,11.10
2022-08-07T00:20:57.483Z,11.00
2022-08-07T00:23:30.176Z,11.00
2022-08-07T00:26:00.267Z,11.00
2022-08-07T00:28:34.071Z,10.90
2022-08-07T00:31:06.046Z,11.00
2022-08-07T00:33:40.023Z,10.80
2022-08-07T00:36:08.361Z,10.80
2022-08-07T00:38:36.772Z,10.80
2022-08-07T00:41:14.417Z,10.80
2022-08-07T00:44:01.081Z,10.80
2022-08-07T00:46:30.972Z,10.90
2022-08-07T00:49:02.694Z,10.90
2022-08-07T00:51:56.943Z,10.80
2022-08-07T00:54:19.923Z,10.70
2022-08-07T00:56:49.600Z,10.80
2022-08-07T00:59:18.067Z,10.80
2022-08-07T01:01:48.601Z,10.70
2022-08-07T01:04:23.839Z,10.70
2022-08-07T01:06:51.796Z,10.60
2022-08-07T01:10:05.090Z,10.60
2022-08-07T01:12:29.005Z,10.50
2022-08-07T01:15:00.979Z,10.50
2022-08-07T01:17:30.211Z,10.50
2022-08-07T01:20:05.026Z,10.50
2022-08-07T01:22:33.615Z,10.40
2022-08-07T01:25:02.516Z,10.30
2022-08-07T01:27:51.410Z,10.40
2022-08-07T01:30:18.911Z,10.40
2022-08-07T01:32:45.981Z,10.30
2022-08-07T01:35:17.167Z,10.30
2022-08-07T01:37:44.271Z,10.40
2022-08-07T01:40:14.776Z,10.30
2022-08-07T01:42:58.720Z,10.30
2022-08-07T01:45:37.363Z,10.30
2022-08-07T01:48:20.585Z,10.20
2022-08-07T01:51:24.540Z,10.20
2022-08-07T01:54:09.169Z,10.20
2022-08-07T01:56:51.744Z,10.10
2022-08-07T01:59:23.024Z,10.10
2022-08-07T02:01:59.981Z,10.10
2022-08-07T02:04:39.553Z,10.20
2022-08-07T02:07:35.927Z,10.10
2022-08-07T02:10:18.437Z,10.00
2022-08-07T02:12:49.226Z,10.00
2022-08-07T02:15:22.993Z,10.00
2022-08-07T02:17:51.793Z,9.90
2022-08-07T02:20:23.807Z,9.90
2022-08-07T02:22:57.624Z,10.00
2022-08-07T02:26:10.479Z,10.10
2022-08-07T02:28:25.418Z,10.20
2022-08-07T02:30:55.640Z,10.30
2022-08-07T02:33:42.145Z,10.40
2022-08-07T02:36:29.409Z,10.40
2022-08-07T02:39:01.722Z,10.30
2022-08-07T02:41:37.320Z,10.30
2022-08-07T02:44:05.148Z,10.30
2022-08-07T02:46:36.758Z,10.30
2022-08-07T02:49:05.670Z,10.30
2022-08-07T02:51:49.925Z,10.40
2022-08-07T02:54:20.678Z,10.30
2022-08-07T02:56:53.788Z,10.30
2022-08-07T02:59:27.314Z,10.30
2022-08-07T03:01:55.520Z,10.20
2022-08-07T03:04:24.329Z,10.20
2022-08-07T03:06:52.987Z,10.20
2022-08-07T03:09:44.721Z,10.20
2022-08-07T03:12:19.177Z,10.10
2022-08-07T03:14:52.211Z,10.10
2022-08-07T03:17:20.191Z,10.10
2022-08-07T03:19:54.732Z,10.10
2022-08-07T03:22:24.150Z,10.10
2022-08-07T03:24:57.324Z,10.00
2022-08-07T03:27:30.095Z,10.10
2022-08-07T03:29:58.886Z,10.10
2022-08-07T03:32:35.872Z,10.10
2022-08-07T03:35:17.354Z,10.20
2022-08-07T03:37:53.777Z,10.20
2022-08-07T03:40:22.695Z,10.20
2022-08-07T03:42:51.461Z,10.10
2022-08-07T03:45:31.007Z,10.10
2022-08-07T03:47:59.877Z,10.10
2022-08-07T03:50:28.502Z,10.10
2022-08-07T03:52:59.141Z,10.10
2022-08-07T03:55:52.796Z,10.00
2022-08-07T03:59:06.866Z,10.00
2022-08-07T04:01:07.517Z,10.00
2022-08-07T04:03:49.543Z,10.00
2022-08-07T04:06:37.326Z,10.00
2022-08-07T04:09:06.115Z,9.90
2022-08-07T04:12:26.703Z,9.90
2022-08-07T04:14:38.100Z,10.00
2022-08-07T04:17:19.928Z,10.00
2022-08-07T04:19:52.729Z,10.10
2022-08-07T04:22:27.611Z,10.10
2022-08-07T04:24:58.762Z,10.10
2022-08-07T04:27:28.920Z,10.10
2022-08-07T04:30:04.636Z,10.20
2022-08-07T04:32:34.428Z,10.20
2022-08-07T04:35:07.329Z,10.10
2022-08-07T04:38:01.025Z,10.10
2022-08-07T04:40:29.694Z,10.10
2022-08-07T04:43:01.954Z,10.10
2022-08-07T04:45:57.917Z,10.20
2022-08-07T04:48:51.144Z,10.20
2022-08-07T04:51:39.530Z,10.20
2022-08-07T04:54:31.936Z,10.20
2022-08-07T04:58:16.701Z,10.30
2022-08-07T05:00:09.765Z,10.30
2022-08-07T05:03:02.804Z,10.30
2022-08-07T05:06:03.159Z,10.40
2022-08-07T05:09:00.778Z,10.50
2022-08-07T05:11:57.476Z,10.50
2022-08-07T05:14:55.703Z,10.60
2022-08-07T05:18:00.599Z,10.60
2022-08-07T05:20:21.435Z,10.70
2022-08-07T05:22:52.931Z,10.80
2022-08-07T05:25:26.250Z,10.80
2022-08-07T05:28:20.329Z,10.90
2022-08-07T05:30:52.111Z,11.00
2022-08-07T05:33:20.907Z,11.10
2022-08-07T05:35:50.870Z,11.30
2022-08-07T05:39:00.419Z,11.40
2022-08-07T05:41:14.253Z,11.50
2022-08-07T05:44:08.312Z,11.70
2022-08-07T05:46:38.420Z,11.80
2022-08-07T05:49:12.398Z,12.00
2022-08-07T05:51:42.350Z,12.00
2022-08-07T05:54:29.916Z,12.10
2022-08-07T05:56:57.934Z,12.30
2022-08-07T05:59:26.278Z,12.50
2022-08-07T06:01:57.286Z,12.50
2022-08-07T06:04:29.818Z,12.60
2022-08-07T06:07:03.749Z,12.90
2022-08-07T06:10:04.208Z,13.10
2022-08-07T06:12:20.814Z,13.30
2022-08-07T06:14:49.515Z,13.50
2022-08-07T06:17:19.176Z,13.70
2022-08-07T06:20:03.222Z,14.10
2022-08-07T06:22:38.736Z,14.50
2022-08-07T06:25:09.980Z,14.60
2022-08-07T06:28:00.565Z,14.90
2022-08-07T06:30:35.481Z,15.30
2022-08-07T06:33:05.416Z,15.70
2022-08-07T06:35:48.056Z,16.00
2022-08-07T06:38:26.175Z,16.30
2022-08-07T06:41:01.058Z,16.60
2022-08-07T06:43:39.556Z,16.90
2022-08-07T06:46:11.418Z,17.10
2022-08-07T06:48:41.835Z,17.40
2022-08-07T06:51:31.354Z,17.50
2022-08-07T06:55:27.528Z,17.50
2022-08-07T06:56:51.042Z,17.70
2022-08-07T07:00:14.212Z,18.00
2022-08-07T07:02:53.259Z,18.30
2022-08-07T07:05:12.900Z,18.50
2022-08-07T07:07:59.772Z,18.80
2022-08-07T07:10:35.159Z,18.90
2022-08-07T07:13:41.432Z,19.30
2022-08-07T07:16:18.082Z,19.20
2022-08-07T07:18:54.563Z,19.50
2022-08-07T07:21:26.971Z,19.70
2022-08-07T07:24:12.585Z,20.10
2022-08-07T07:26:52.169Z,20.10
2022-08-07T07:29:39.277Z,20.40
2022-08-07T07:32:14.330Z,20.70
2022-08-07T07:34:45.884Z,20.80
2022-08-07T07:37:45.309Z,20.90
2022-08-07T07:40:14.905Z,21.00
2022-08-07T07:42:55.596Z,21.10
2022-08-07T07:46:53.707Z,21.20
2022-08-07T07:48:35.286Z,21.60
2022-08-07T07:51:08.039Z,21.70
2022-08-07T07:53:48.179Z,22.20
2022-08-07T07:56:30.193Z,22.20
2022-08-07T07:59:01.670Z,22.30
2022-08-07T08:02:01.666Z,22.60
2022-08-07T08:04:19.200Z,22.90
2022-08-07T08:06:51.956Z,23.30
2022-08-07T08:09:23.646Z,23.50
2022-08-07T08:12:02.622Z,23.30
2022-08-07T08:14:34.358Z,22.90
2022-08-07T08:18:36.531Z,23.00
2022-08-07T08:20:17.398Z,22.60
2022-08-07T08:23:09.421Z,22.80
2022-08-07T08:26:03.328Z,23.10
2022-08-07T08:28:39.232Z,23.50
2022-08-07T08:31:22.933Z,23.40
2022-08-07T08:34:06.922Z,23.20
2022-08-07T08:36:37.185Z,23.70
2022-08-07T08:39:08.776Z,23.90
2022-08-07T08:42:05.979Z,24.30
2022-08-07T08:44:44.665Z,24.00
2022-08-07T08:47:47.383Z,24.10
2022-08-07T08:50:40.033Z,24.40
2022-08-07T08:53:33.510Z,24.80
2022-08-07T08:56:10.198Z,24.70
2022-08-07T08:59:08.661Z,25.00
2022-08-07T09:01:49.088Z,24.80
2022-08-07T09:04:28.886Z,24.90
2022-08-07T09:07:11.334Z,25.30
2022-08-07T09:10:07.975Z,25.20
2022-08-07T09:12:53.204Z,25.40
2022-08-07T09:16:23.130Z,25.40
2022-08-07T09:18:53.437Z,25.50
2022-08-07T09:21:34.395Z,25.90
2022-08-07T09:24:55.963Z,26.30
2022-08-07T09:27:59.753Z,26.60
2022-08-07T09:30:41.546Z,26.50
2022-08-07T09:33:52.727Z,26.30
2022-08-07T09:36:27.067Z,26.20
2022-08-07T09:39:55.124Z,26.30
2022-08-07T09:42:50.463Z,26.30
2022-08-07T09:47:24.046Z,26.70
2022-08-07T09:50:01.197Z,25.90
2022-08-07T09:52:34.208Z,25.30
2022-08-07T09:55:29.665Z,26.10
2022-08-07T09:58:12.661Z,26.40
2022-08-07T10:01:08.479Z,27.00
2022-08-07T10:04:03.933Z,27.50
2022-08-07T10:06:37.840Z,27.90
2022-08-07T10:09:42.449Z,27.50
2022-08-07T10:12:31.708Z,27.30
2022-08-07T10:15:15.493Z,26.50
2022-08-07T10:18:03.908Z,26.40
2022-08-07T10:20:51.744Z,26.30
2022-08-07T10:24:06.702Z,27.00
2022-08-07T10:26:53.686Z,27.30
2022-08-07T10:29:51.785Z,27.80
2022-08-07T10:32:52.275Z,27.80
2022-08-07T10:35:55.636Z,27.90
2022-08-07T10:38:48.750Z,28.50
2022-08-07T10:41:51.470Z,28.20
2022-08-07T10:44:47.364Z,28.80
2022-08-07T10:48:09.695Z,28.40
2022-08-07T10:50:59.971Z,28.70
2022-08-07T10:53:44.267Z,29.40
2022-08-07T10:56:32.888Z,29.30
2022-08-07T10:59:24.314Z,29.10
2022-08-07T11:02:33.086Z,29.10
2022-08-07T11:05:50.689Z,28.30
2022-08-07T11:08:41.045Z,28.90
2022-08-07T11:11:25.763Z,29.50
2022-08-07T11:14:57.537Z,30.10
2022-08-07T11:17:02.127Z,29.50
2022-08-07T11:19:40.502Z,29.20
2022-08-07T11:22:33.226Z,29.20
2022-08-07T11:25:23.345Z,29.40
2022-08-07T11:28:15.474Z,28.40
2022-08-07T11:30:48.528Z,28.40
2022-08-07T11:33:59.123Z,28.40
2022-08-07T11:36:39.632Z,28.40
2022-08-07T11:39:19.293Z,28.50
2022-08-07T11:42:03.215Z,28.60
2022-08-07T11:44:57.680Z,28.30
2022-08-07T11:47:56.206Z,28.30
2022-08-07T11:50:57.470Z,28.30
2022-08-07T11:53:27.664Z,28.60
2022-08-07T11:56:28.677Z,28.80
2022-08-07T12:00:08.138Z,28.70
2022-08-07T12:02:40.882Z,29.50
2022-08-07T12:05:58.437Z,29.80
2022-08-07T12:08:57.024Z,29.60
2022-08-07T12:11:32.214Z,30.30
2022-08-07T12:14:24.556Z,30.00
2022-08-07T12:17:19.959Z,30.30
2022-08-07T12:20:12.891Z,30.10
2022-08-07T12:24:04.762Z,29.60
2022-08-07T12:26:47.003Z,28.60
2022-08-07T12:29:20.528Z,29.40
2022-08-07T12:32:34.591Z,29.30
2022-08-07T12:35:08.332Z,28.90
2022-08-07T12:38:09.026Z,28.80
2022-08-07T12:40:46.746Z,29.20
2022-08-07T12:44:04.181Z,29.50
2022-08-07T12:46:16.028Z,29.90
2022-08-07T12:48:58.521Z,30.50
2022-08-07T12:52:11.736Z,30.40
2022-08-07T12:54:59.048Z,29.80
2022-08-07T12:57:59.168Z,28.70
2022-08-07T13:00:32.883Z,28.50
2022-08-07T13:03:27.103Z,28.10
2022-08-07T13:06:28.224Z,28.50
2022-08-07T13:10:19.373Z,28.70
2022-08-07T13:12:16.147Z,28.80
2022-08-07T13:15:00.828Z,29.50
2022-08-07T13:17:39.711Z,29.90
2022-08-07T13:20:46.512Z,30.30
2022-08-07T13:24:00.579Z,31.10
2022-08-07T13:26:26.413Z,31.30
2022-08-07T13:29:20.867Z,31.30
2022-08-07T13:32:31.877Z,30.20
2022-08-07T13:35:21.134Z,30.50
2022-08-07T13:37:59.131Z,30.30
2022-08-07T13:40:42.318Z,30.70
2022-08-07T13:43:15.367Z,30.70
2022-08-07T13:46:11.225Z,30.60
2022-08-07T13:48:59.362Z,30.40
2022-08-07T13:52:22.388Z,30.00
2022-08-07T13:54:22.554Z,29.60
2022-08-07T13:56:59.922Z,29.80
2022-08-07T13:59:33.046Z,30.20
2022-08-07T14:02:08.604Z,30.00
2022-08-07T14:04:47.495Z,30.20
2022-08-07T14:07:21.037Z,30.00
2022-08-07T14:10:17.347Z,30.50
2022-08-07T14:12:54.880Z,30.70
2022-08-07T14:15:42.295Z,31.10
2022-08-07T14:18:28.394Z,31.00
2022-08-07T14:22:00.950Z,30.30
2022-08-07T14:24:45.551Z,30.30
2022-08-07T14:28:09.446Z,29.60
2022-08-07T14:30:11.298Z,30.30
2022-08-07T14:32:54.996Z,29.50
2022-08-07T14:35:44.938Z,28.90
2022-08-07T14:38:26.147Z,29.50
2022-08-07T14:41:05.203Z,29.10
2022-08-07T14:43:58.385Z,29.20
2022-08-07T14:46:31.529Z,29.30
2022-08-07T14:52:02.973Z,29.40
2022-08-07T14:54:35.819Z,29.50
2022-08-07T14:57:54.979Z,30.00
2022-08-07T15:02:57.030Z,29.30
2022-08-07T15:05:26.796Z,29.00
2022-08-07T15:07:55.577Z,28.90
2022-08-07T15:10:32.357Z,29.00
2022-08-07T15:13:11.622Z,28.80
2022-08-07T15:15:42.274Z,28.20
2022-08-07T15:21:44.708Z,28.30
2022-08-07T15:25:14.758Z,28.40
2022-08-07T15:27:29.013Z,28.00
2022-08-07T15:30:06.419Z,27.80
2022-08-07T15:32:50.790Z,27.70
2022-08-07T15:36:04.844Z,27.80
2022-08-07T15:38:33.133Z,27.30
2022-08-07T15:44:15.142Z,27.20
2022-08-07T15:46:51.901Z,27.20
2022-08-07T15:50:05.694Z,27.20
2022-08-07T15:52:30.143Z,26.70
2022-08-07T15:55:03.842Z,26.40
2022-08-07T15:57:39.705Z,26.10
2022-08-07T16:00:31.432Z,25.80
2022-08-07T16:03:21.761Z,25.50
2022-08-07T16:06:04.364Z,25.40
2022-08-07T16:08:38.322Z,25.30
2022-08-07T16:11:26.220Z,25.20
2022-08-07T16:14:05.370Z,25.30
2022-08-07T16:16:48.186Z,25.00
2022-08-07T16:19:42.910Z,25.10
2022-08-07T16:23:05.356Z,25.10
2022-08-07T16:25:54.380Z,25.20
2022-08-07T16:29:18.686Z,25.10
2022-08-07T16:32:01.477Z,24.90
2022-08-07T16:34:49.659Z,24.80
2022-08-07T16:38:03.626Z,24.70
2022-08-07T16:40:28.771Z,24.60
2022-08-07T16:43:21.798Z,24.60
2022-08-07T16:47:03.497Z,24.60
2022-08-07T16:50:29.366Z,24.50
2022-08-07T16:52:52.091Z,24.40
2022-08-07T16:55:43.769Z,24.30
2022-08-07T16:58:22.593Z,24.20
2022-08-07T17:01:15.835Z,24.20
2022-08-07T17:04:00.137Z,24.10
2022-08-07T17:07:05.030Z,24.10
2022-08-07T17:10:07.091Z,24.00
2022-08-07T17:12:52.849Z,24.00
2022-08-07T17:15:43.639Z,23.90
2022-08-07T17:18:28.084Z,23.80
2022-08-07T17:20:56.318Z,23.70
2022-08-07T17:23:23.025Z,23.70
2022-08-07T17:26:23.419Z,23.60
2022-08-07T17:28:57.828Z,23.60
2022-08-07T17:32:03.211Z,23.60
2022-08-07T17:35:40.185Z,23.40
2022-08-07T17:38:05.818Z,23.40
2022-08-07T17:42:00.690Z,23.30
2022-08-07T17:44:02.775Z,23.30
2022-08-07T17:46:40.232Z,23.30
2022-08-07T17:49:44.546Z,23.30
2022-08-07T17:52:46.433Z,23.20
2022-08-07T17:56:00.953Z,23.10
2022-08-07T17:58:13.603Z,23.10
2022-08-07T18:00:59.285Z,23.00
2022-08-07T18:04:04.070Z,22.90
2022-08-07T18:06:37.245Z,23.00
2022-08-07T18:09:08.562Z,22.80
2022-08-07T18:12:07.185Z,22.70
2022-08-07T18:15:00.857Z,22.60
2022-08-07T18:18:44.852Z,22.40
2022-08-07T18:21:06.352Z,22.30
2022-08-07T18:23:42.380Z,22.20
2022-08-07T18:26:15.138Z,22.00
2022-08-07T18:29:03.663Z,21.90
2022-08-07T18:32:06.701Z,21.70
2022-08-07T18:35:01.472Z,21.60
2022-08-07T18:38:56.140Z,21.40
2022-08-07T18:40:53.527Z,21.30
2022-08-07T18:44:02.506Z,21.00
2022-08-07T18:47:02.327Z,20.80
2022-08-07T18:50:31.465Z,20.60
2022-08-07T18:53:14.078Z,20.40
2022-08-07T18:56:02.174Z,20.30
2022-08-07T18:58:52.869Z,20.10
2022-08-07T19:02:19.456Z,20.00
2022-08-07T19:04:59.439Z,19.90
2022-08-07T19:07:51.294Z,19.60
2022-08-07T19:10:31.482Z,19.40
2022-08-07T19:13:21.889Z,19.40
2022-08-07T19:17:01.437Z,19.30
2022-08-07T19:19:31.923Z,19.10
2022-08-07T19:22:11.255Z,19.10
2022-08-07T19:24:48.810Z,18.90
2022-08-07T19:28:29.186Z,18.70
2022-08-07T19:31:06.374Z,18.70
2022-08-07T19:33:08.386Z,18.60
2022-08-07T19:35:46.192Z,18.40
2022-08-07T19:38:16.975Z,18.20
2022-08-07T19:40:50.370Z,18.10
2022-08-07T19:43:48.680Z,17.90
2022-08-07T19:46:11.584Z,17.80
2022-08-07T19:48:44.009Z,17.80
2022-08-07T19:51:19.578Z,17.80
2022-08-07T19:54:31.284Z,17.70
2022-08-07T19:58:00.655Z,17.70
2022-08-07T19:59:41.989Z,17.50
2022-08-07T20:02:19.734Z,17.30
2022-08-07T20:04:58.006Z,17.30
2022-08-07T20:07:47.716Z,17.30
2022-08-07T20:10:36.108Z,17.10
2022-08-07T20:13:26.787Z,17.10
2022-08-07T20:15:57.789Z,17.00
2022-08-07T20:18:33.024Z,17.00
2022-08-07T20:21:21.334Z,16.90
2022-08-07T20:24:00.516Z,16.80
2022-08-07T20:26:38.445Z,16.80
2022-08-07T20:29:46.899Z,16.80
2022-08-07T20:32:03.878Z,16.50
2022-08-07T20:34:50.023Z,16.50
2022-08-07T20:37:23.494Z,16.50
2022-08-07T20:40:02.652Z,16.40
2022-08-07T20:42:33.449Z,16.30
2022-08-07T20:45:04.371Z,16.10
2022-08-07T20:47:56.983Z,16.00
2022-08-07T20:50:27.953Z,16.00
2022-08-07T20:52:56.804Z,16.00
2022-08-07T20:55:24.499Z,16.00
2022-08-07T20:58:03.409Z,16.00
2022-08-07T21:00:45.964Z,16.00
2022-08-07T21:03:19.266Z,15.90
2022-08-07T21:06:21.538Z,15.70
2022-08-07T21:09:15.148Z,15.70
2022-08-07T21:11:50.899Z,15.60
2022-08-07T21:14:32.820Z,15.50
2022-08-07T21:18:03.625Z,15.30
2022-08-07T21:20:01.041Z,15.30
2022-08-07T21:22:39.230Z,15.20
2022-08-07T21:25:16.742Z,15.20
2022-08-07T21:28:10.121Z,15.10
2022-08-07T21:30:56.377Z,15.00
2022-08-07T21:33:41.118Z,14.90
2022-08-07T21:36:31.124Z,14.90
2022-08-07T21:39:46.217Z,14.70
2022-08-07T21:42:46.670Z,14.70
2022-08-07T21:46:08.813Z,14.60
2022-08-07T21:48:56.533Z,14.60
2022-08-07T21:51:32.197Z,14.50
2022-08-07T21:54:23.367Z,14.40
2022-08-07T21:57:39.416Z,14.30
2022-08-07T22:00:22.202Z,14.30
2022-08-07T22:03:30.689Z,14.30
2022-08-07T22:06:29.985Z,14.20
2022-08-07T22:09:07.867Z,14.10
2022-08-07T22:12:04.752Z,14.00
2022-08-07T22:14:36.584Z,14.00
2022-08-07T22:17:07.314Z,13.90
2022-08-07T22:20:23.040Z,13.90
2022-08-07T22:22:57.236Z,13.90
2022-08-07T22:26:01.725Z,13.80
2022-08-07T22:28:35.410Z,13.80
2022-08-07T22:31:59.291Z,13.70
2022-08-07T22:34:49.620Z,13.60
2022-08-07T22:38:03.646Z,13.60
2022-08-07T22:40:23.541Z,13.50
2022-08-07T22:42:57.965Z,13.40
2022-08-07T22:46:47.259Z,13.40
2022-08-07T22:49:07.668Z,13.30
2022-08-07T22:52:10.203Z,13.30
2022-08-07T22:54:48.845Z,13.20
2022-08-07T22:57:34.306Z,13.20
2022-08-07T23:00:14.730Z,13.10
2022-08-07T23:02:41.848Z,13.00
2022-08-07T23:06:06.761Z,13.00
2022-08-07T23:08:32.941Z,12.90
2022-08-07T23:11:12.910Z,12.90
2022-08-07T23:14:17.661Z,12.80
2022-08-07T23:17:01.830Z,12.70
2022-08-07T23:20:11.581Z,12.70
2022-08-07T23:22:58.840Z,12.60
2022-08-07T23:25:42.062Z,12.60
2022-08-07T23:28:22.804Z,12.60
2022-08-07T23:31:11.659Z,12.50
2022-08-07T23:34:34.106Z,12.50
2022-08-07T23:37:22.355Z,12.50
2022-08-07T23:40:14.645Z,12.30
2022-08-07T23:43:04.421Z,12.30
2022-08-07T23:46:10.566Z,12.30
2022-08-07T23:48:58.677Z,12.30
2022-08-07T23:52:57.068Z,12.30
2022-08-07T23:54:52.166Z,12.20
2022-08-07T23:57:30.957Z,12.10
